TimePDT,TemperatureF,Dew PointF,Humidity,Sea Level PressureIn,VisibilityMPH,Wind Direction,Wind SpeedMPH,Gust SpeedMPH,PrecipitationIn,Events,Conditions,WindDirDegrees,DateUTC
1:55 AM,46.4,41.0,81,29.96,10.0,SSE,9.2,-,N/A,,Mostly Cloudy,150,2013-03-26 08:55:00
2:45 AM,46.4,41.0,81,29.96,10.0,SSE,10.4,-,N/A,,Mostly Cloudy,160,2013-03-26 09:45:00
3:45 AM,42.8,41.0,93,29.96,10.0,SE,8.1,-,N/A,,Scattered Clouds,130,2013-03-26 10:45:00
4:45 AM,41.0,39.2,93,29.95,10.0,SE,5.8,-,N/A,,Scattered Clouds,130,2013-03-26 11:45:00
5:45 AM,39.2,39.2,100,29.96,10.0,ESE,6.9,-,N/A,,Partly Cloudy,120,2013-03-26 12:45:00
6:45 AM,39.2,39.2,100,29.96,10.0,SE,6.9,-,N/A,,Scattered Clouds,130,2013-03-26 13:45:00
7:49 AM,42.8,41.0,93,29.97,10.0,SE,4.6,-,N/A,,Scattered Clouds,130,2013-03-26 14:49:00
9:45 AM,50.0,44.6,82,29.99,10.0,SSE,8.1,-,N/A,,Scattered Clouds,150,2013-03-26 16:45:00
10:55 AM,55.4,44.6,67,30.00,10.0,SE,6.9,-,N/A,,Scattered Clouds,140,2013-03-26 17:55:00
11:50 AM,57.2,46.4,67,30.00,10.0,South,8.1,-,N/A,,Scattered Clouds,170,2013-03-26 18:50:00
12:50 PM,59.0,46.4,63,29.99,10.0,Calm,Calm,-,N/A,,Scattered Clouds,0,2013-03-26 19:50:00
2:55 PM,66.2,46.4,49,29.95,10.0,WSW,3.5,-,N/A,,Scattered Clouds,250,2013-03-26 21:55:00
3:48 PM,68.0,46.4,46,29.93,10.0,South,4.6,-,N/A,,Scattered Clouds,170,2013-03-26 22:48:00
4:46 PM,68.0,44.6,43,29.92,10.0,Calm,Calm,-,N/A,,Partly Cloudy,0,2013-03-26 23:46:00
6:46 PM,66.2,46.4,49,29.91,10.0,South,4.6,-,N/A,,Partly Cloudy,190,2013-03-27 01:46:00
7:50 PM,59.0,46.4,63,29.91,10.0,SSW,5.8,-,N/A,,Partly Cloudy,210,2013-03-27 02:50:00
8:50 PM,57.2,46.4,67,29.93,10.0,SSW,5.8,-,N/A,,Partly Cloudy,210,2013-03-27 03:50:00
9:45 PM,53.6,46.4,77,29.94,10.0,South,5.8,-,N/A,,Scattered Clouds,180,2013-03-27 04:45:00
10:45 PM,51.8,44.6,76,29.94,10.0,SE,4.6,-,N/A,,Mostly Cloudy,140,2013-03-27 05:45:00
11:45 PM,50.0,44.6,82,29.95,10.0,SSE,4.6,-,N/A,,Mostly Cloudy,150,2013-03-27 06:45:00